Airfield :
LOGIN :

Register | Disclaimer

   EN    FR    IT 

 










Legend :    VFR   Marginal VFR   IFR   Intensive IFR   Very Intensive IFR
Visi :
Ceiling :
>= 8 km
>= 3000ft
5 to 8 km
1000 to 3000 ft
1500m to 5 km
500 to 1000 ft
800 to 1500m
200 to 500 ft
< 800m
< 200 ft
Symbols :   Thunderstorms  Fog  Heavy snow  Heavy precipitations  Wind > 20 kt
SIGMETs :     Misc.  Thunderstorms  Icing  Turbulence  Mountain Waves  Volcanic Ashes







- Airport Elevation : 659 ft
- IATA code : LGG


EBLG - Liège

CURRENT METAR :
  • 210950Z 23014KT 9999 FEW030 14/12 Q1009 NOSIG

EXPIRED METARs :
  • 210920Z 23012KT 9999 FEW015 13/11 Q1008 NOSIG
  • 210850Z 23016KT 7000 -RA FEW013 BKN040 13/11 Q1008 TEMPO 23025G35KT 5000 BR
  • 210820Z 25017KT 9999 -RA FEW012 BKN037 13/11 Q1008 TEMPO 23025G35KT 2500 RA BKN010
  • 210750Z 28024G36KT 2000 +RA BKN005 BKN025 13/11 Q1007 TEMPO 23025G35KT 2000 +RA BKN004
  • 210720Z 22018G28KT 9999 -RA BKN030 18/13 Q1005 TEMPO 23025G35KT 2000 +RA BKN004

TAF TAF EBLG
Valid from the 21 at 06:00 until the 22 at 12:00 UTC


210520Z 2106/2212 20017G35KT 9999 SCT030
PROB40
TEMPO 2106/2109 3200 RA SHRA SCT008 BKN011
BECMG 2108/2110 27018G36KT
BECMG 2116/2118 24015G25KT
BECMG 2120/2122 24013KT
No reported NOTAMs for that airfield.



MET'MAP, your aeronautical weather chart ! - Copyright ORBIFLY December 2007 - Disclaimer

ORBIFLY MET'MAP TEAM :

Programming & Development : Alexandra Zaïnal
Concept & Development : Baudouin d'Aumeries
Co-Development & Prog : Marc-Olivier Méhu
Technical & hardware support : Manuel Goepfert

Contact : metmap@orbifly.com




SOURCES & CREDITS :

   NOAA